createdAt,value
2023-02-24T00:02:05.599Z,99439.69
2023-02-24T00:04:39.487Z,99436.41
2023-02-24T00:07:09.023Z,99440.47
2023-02-24T00:09:37.129Z,99432.88
2023-02-24T00:12:08.840Z,99438.59
2023-02-24T00:14:39.147Z,99428.56
2023-02-24T00:17:10.267Z,99429.75
2023-02-24T00:19:38.543Z,99428.53
2023-02-24T00:22:07.987Z,99428.06
2023-02-24T00:24:36.094Z,99425.81
2023-02-24T00:27:11.028Z,99417.38
2023-02-24T00:29:39.947Z,99428.44
2023-02-24T00:32:08.179Z,99419.81
2023-02-24T00:34:37.522Z,99417.56
2023-02-24T00:37:06.902Z,99409.97
2023-02-24T00:39:35.465Z,99417.31
2023-02-24T00:42:05.910Z,99414.03
2023-02-24T00:44:36.999Z,99409.06
2023-02-24T00:47:07.031Z,99411.13
2023-02-24T00:49:36.086Z,99405.78
2023-02-24T00:52:08.003Z,99399.84
2023-02-24T00:54:36.754Z,99399.22
2023-02-24T00:57:03.988Z,99396.56
2023-02-24T00:59:30.960Z,99400.22
2023-02-24T01:01:58.115Z,99398.59
2023-02-24T01:04:25.544Z,99391.63
2023-02-24T01:06:59.950Z,99391.00
2023-02-24T01:09:30.089Z,99389.34
2023-02-24T01:12:17.234Z,99387.06
2023-02-24T01:14:49.391Z,99380.91
2023-02-24T01:17:19.215Z,99381.13
2023-02-24T01:19:49.883Z,99379.47
2023-02-24T01:22:19.795Z,99373.34
2023-02-24T01:24:47.169Z,99372.50
2023-02-24T01:27:18.499Z,99364.69
2023-02-24T01:29:47.459Z,99364.91
2023-02-24T01:32:19.480Z,99360.81
2023-02-24T01:34:47.668Z,99360.97
2023-02-24T01:37:16.335Z,99356.06
2023-02-24T01:39:45.057Z,99349.47
2023-02-24T01:42:20.524Z,99348.22
2023-02-24T01:44:47.848Z,99344.28
2023-02-24T01:47:18.472Z,99347.56
2023-02-24T01:49:49.774Z,99340.16
2023-02-24T01:52:26.192Z,99342.38
2023-02-24T01:55:02.845Z,99347.28
2023-02-24T01:57:35.307Z,99346.00
2023-02-24T02:00:12.026Z,99346.41
2023-02-24T02:02:47.401Z,99341.44
2023-02-24T02:05:14.873Z,99338.16
2023-02-24T02:07:43.536Z,99340.22
2023-02-24T02:10:13.393Z,99335.25
2023-02-24T02:12:44.321Z,99330.13
2023-02-24T02:15:20.450Z,99327.03
2023-02-24T02:18:28.018Z,99330.09
2023-02-24T02:21:46.081Z,99324.13
2023-02-24T02:24:27.554Z,99322.66
2023-02-24T02:27:33.954Z,99320.00
2023-02-24T02:31:04.195Z,99321.22
2023-02-24T02:34:05.652Z,99317.94
2023-02-24T02:36:36.591Z,99309.97
2023-02-24T02:39:06.292Z,99318.28
2023-02-24T02:42:12.545Z,99313.97
2023-02-24T02:45:21.398Z,99305.19
2023-02-24T02:47:54.430Z,99304.34
2023-02-24T02:50:27.022Z,99296.38
2023-02-24T02:53:00.743Z,99301.09
2023-02-24T02:55:40.460Z,99310.06
2023-02-24T02:58:15.187Z,99306.56
2023-02-24T03:00:58.684Z,99305.75
2023-02-24T03:03:27.936Z,99290.81
2023-02-24T03:06:11.929Z,99285.69
2023-02-24T03:08:44.193Z,99295.50
2023-02-24T03:11:15.326Z,99292.84
2023-02-24T03:13:45.421Z,99289.53
2023-02-24T03:16:14.614Z,99292.41
2023-02-24T03:18:52.991Z,99289.94
2023-02-24T03:21:39.868Z,99285.84
2023-02-24T03:24:07.734Z,99282.16
2023-02-24T03:27:01.523Z,99278.03
2023-02-24T03:29:45.959Z,99272.72
2023-02-24T03:32:20.128Z,99278.03
2023-02-24T03:35:04.180Z,99281.69
2023-02-24T03:37:33.510Z,99284.38
2023-02-24T03:40:17.702Z,99280.88
2023-02-24T03:42:57.588Z,99280.06
2023-02-24T03:45:27.751Z,99279.03
2023-02-24T03:47:56.055Z,99276.38
2023-02-24T03:50:25.285Z,99274.75
2023-02-24T03:53:22.316Z,99276.59
2023-02-24T03:56:10.806Z,99280.06
2023-02-24T03:58:57.533Z,99274.75
2023-02-24T04:01:48.736Z,99278.41
2023-02-24T04:04:37.915Z,99274.94
2023-02-24T04:07:53.208Z,99268.16
2023-02-24T04:10:52.425Z,99267.53
2023-02-24T04:13:49.791Z,99273.88
2023-02-24T04:16:36.389Z,99268.56
2023-02-24T04:19:13.988Z,99266.09
2023-02-24T04:21:45.217Z,99266.91
2023-02-24T04:24:21.990Z,99257.28
2023-02-24T04:26:51.753Z,99259.13
2023-02-24T04:29:23.695Z,99257.47
2023-02-24T04:31:59.408Z,99250.50
2023-02-24T04:34:32.198Z,99247.84
2023-02-24T04:37:02.220Z,99243.34
2023-02-24T04:39:31.647Z,99244.38
2023-02-24T04:42:01.604Z,99247.03
2023-02-24T04:44:29.109Z,99243.56
2023-02-24T04:46:56.509Z,99237.41
2023-02-24T04:49:23.612Z,99242.72
2023-02-24T04:51:51.553Z,99238.22
2023-02-24T04:54:20.583Z,99228.81
2023-02-24T04:56:50.650Z,99228.81
2023-02-24T04:59:19.817Z,99224.53
2023-02-24T05:01:51.482Z,99215.72
2023-02-24T05:04:19.613Z,99203.41
2023-02-24T05:06:47.238Z,99202.59
2023-02-24T05:09:17.967Z,99190.31
2023-02-24T05:11:49.331Z,99184.19
2023-02-24T05:14:20.687Z,99195.66
2023-02-24T05:16:49.229Z,99199.31
2023-02-24T05:19:38.269Z,99196.66
2023-02-24T05:22:07.158Z,99189.72
2023-02-24T05:24:34.922Z,99192.38
2023-02-24T05:27:03.616Z,99187.06
2023-02-24T05:29:35.224Z,99187.06
2023-02-24T05:32:04.290Z,99183.56
2023-02-24T05:34:33.091Z,99175.59
2023-02-24T05:37:04.399Z,99171.09
2023-02-24T05:39:31.438Z,99169.47
2023-02-24T05:41:58.475Z,99161.50
2023-02-24T05:44:26.992Z,99161.50
2023-02-24T05:46:58.622Z,99164.16
2023-02-24T05:49:32.961Z,99146.56
2023-02-24T05:52:07.276Z,99150.03
2023-02-24T05:54:41.089Z,99142.88
2023-02-24T05:57:12.211Z,99141.25
2023-02-24T05:59:41.135Z,99137.56
2023-02-24T06:02:17.454Z,99133.28
2023-02-24T06:04:53.848Z,99132.41
2023-02-24T06:07:27.339Z,99127.09
2023-02-24T06:09:58.821Z,99140.41
2023-02-24T06:12:34.503Z,99144.88
2023-02-24T06:15:07.213Z,99137.94
2023-02-24T06:17:34.194Z,99135.47
2023-02-24T06:20:01.152Z,99126.69
2023-02-24T06:22:28.122Z,99129.34
2023-02-24T06:24:56.719Z,99132.00
2023-02-24T06:27:24.548Z,99118.72
2023-02-24T06:29:54.456Z,99126.69
2023-02-24T06:32:25.936Z,99123.00
2023-02-24T06:34:53.927Z,99120.34
2023-02-24T06:37:22.696Z,99112.38
2023-02-24T06:39:49.719Z,99120.34
2023-02-24T06:42:16.695Z,99114.22
2023-02-24T06:44:43.692Z,99122.00
2023-02-24T06:47:16.211Z,99121.16
2023-02-24T06:49:43.341Z,99117.69
2023-02-24T06:52:11.545Z,99127.31
2023-02-24T06:54:38.802Z,99124.84
2023-02-24T06:57:05.826Z,99129.34
2023-02-24T06:59:32.781Z,99133.84
2023-02-24T07:02:04.081Z,99133.84
2023-02-24T07:04:43.380Z,99133.03
2023-02-24T07:07:10.970Z,99128.53
2023-02-24T07:09:37.875Z,99132.00
2023-02-24T07:12:05.279Z,99139.97
2023-02-24T07:14:32.187Z,99141.63
2023-02-24T07:16:59.773Z,99139.97
2023-02-24T07:19:32.342Z,99141.00
2023-02-24T07:22:03.416Z,99133.84
2023-02-24T07:24:36.481Z,99127.72
2023-02-24T07:27:08.200Z,99128.53
2023-02-24T07:29:36.298Z,99128.53
2023-02-24T07:32:08.412Z,99128.53
2023-02-24T07:34:39.650Z,99129.34
2023-02-24T07:37:08.412Z,99125.03
2023-02-24T07:39:39.028Z,99124.03
2023-02-24T07:42:08.794Z,99133.63
2023-02-24T07:44:45.434Z,99121.16
2023-02-24T07:47:12.472Z,99126.47
2023-02-24T07:49:40.840Z,99123.63
2023-02-24T07:52:08.684Z,99119.13
2023-02-24T07:54:37.297Z,99122.00
2023-02-24T07:57:06.284Z,99117.50
2023-02-24T07:59:37.706Z,99111.34
2023-02-24T08:02:07.574Z,99113.00
2023-02-24T08:04:36.251Z,99113.81
2023-02-24T08:07:04.149Z,99108.31
2023-02-24T08:09:45.463Z,99104.66
2023-02-24T08:12:21.886Z,99110.78
2023-02-24T08:14:52.124Z,99105.25
2023-02-24T08:17:26.209Z,99092.59
2023-02-24T08:20:15.637Z,99094.25
2023-02-24T08:22:46.623Z,99088.75
2023-02-24T08:25:19.123Z,99083.22
2023-02-24T08:28:07.460Z,99086.50
2023-02-24T08:30:40.180Z,99091.44
2023-02-24T08:33:11.438Z,99090.41
2023-02-24T08:35:44.278Z,99089.38
2023-02-24T08:38:18.747Z,99083.69
2023-02-24T08:40:53.609Z,99084.31
2023-02-24T08:43:30.836Z,99080.63
2023-02-24T08:46:13.291Z,99071.44
2023-02-24T08:48:46.470Z,99062.03
2023-02-24T08:51:35.823Z,99069.81
2023-02-24T08:54:31.861Z,99063.09
2023-02-24T08:57:08.105Z,99057.38
2023-02-24T08:59:40.998Z,99065.78
2023-02-24T09:02:18.755Z,99069.88
2023-02-24T09:04:49.058Z,99065.22
2023-02-24T09:07:22.118Z,99066.66
2023-02-24T09:09:49.475Z,99051.31
2023-02-24T09:12:24.794Z,99054.63
2023-02-24T09:15:00.986Z,99044.59
2023-02-24T09:17:40.329Z,99051.34
2023-02-24T09:20:32.235Z,99043.78
2023-02-24T09:23:07.505Z,99040.09
2023-02-24T09:25:49.279Z,99047.50
2023-02-24T09:28:24.555Z,99034.59
2023-02-24T09:30:55.034Z,99036.06
2023-02-24T09:33:29.391Z,99039.72
2023-02-24T09:36:10.321Z,99028.69
2023-02-24T09:38:59.509Z,99020.94
2023-02-24T09:41:56.157Z,99016.44
2023-02-24T09:44:26.165Z,99011.13
2023-02-24T09:47:00.605Z,99011.13
2023-02-24T09:49:46.508Z,99005.13
2023-02-24T09:52:17.580Z,99005.34
2023-02-24T09:55:09.081Z,99005.91
2023-02-24T09:58:16.921Z,99010.22
2023-02-24T10:01:20.983Z,99006.91
2023-02-24T10:04:18.562Z,99004.19
2023-02-24T10:06:58.782Z,99005.19
2023-02-24T10:10:19.274Z,99001.25
2023-02-24T10:13:17.159Z,98994.25
2023-02-24T10:15:57.825Z,98994.41
2023-02-24T10:19:01.227Z,98995.13
2023-02-24T10:22:02.685Z,98989.94
2023-02-24T10:24:41.252Z,99001.97
2023-02-24T10:27:23.858Z,98985.09
2023-02-24T10:30:19.646Z,98991.22
2023-02-24T10:32:58.629Z,98987.91
2023-02-24T10:35:33.551Z,98981.28
2023-02-24T10:38:05.762Z,98974.69
2023-02-24T10:40:58.529Z,98977.53
2023-02-24T10:43:30.272Z,98976.28
2023-02-24T10:46:06.805Z,98968.88
2023-02-24T10:48:42.247Z,98969.22
2023-02-24T10:51:30.222Z,98963.25
2023-02-24T10:54:31.343Z,98959.69
2023-02-24T10:57:07.788Z,98953.25
2023-02-24T11:00:15.507Z,98950.72
2023-02-24T11:03:22.026Z,98950.09
2023-02-24T11:06:03.934Z,98942.19
2023-02-24T11:08:39.673Z,98943.41
2023-02-24T11:11:29.720Z,98934.91
2023-02-24T11:14:21.275Z,98938.44
2023-02-24T11:17:11.836Z,98926.31
2023-02-24T11:19:55.485Z,98919.56
2023-02-24T11:22:35.752Z,98913.81
2023-02-24T11:25:27.289Z,98906.69
2023-02-24T11:27:57.733Z,98895.88
2023-02-24T11:30:54.751Z,98889.25
2023-02-24T11:34:10.488Z,98883.84
2023-02-24T11:36:48.974Z,98880.44
2023-02-24T11:39:45.960Z,98871.88
2023-02-24T11:42:21.462Z,98861.09
2023-02-24T11:45:13.106Z,98853.34
2023-02-24T11:47:50.105Z,98850.03
2023-02-24T11:50:50.473Z,98844.56
2023-02-24T11:53:45.808Z,98825.66
2023-02-24T11:56:28.171Z,98808.88
2023-02-24T11:59:12.700Z,98806.34
2023-02-24T12:01:48.426Z,98801.72
2023-02-24T12:04:39.312Z,98798.25
2023-02-24T12:07:32.356Z,98793.75
2023-02-24T12:10:17.867Z,98783.97
2023-02-24T12:12:59.910Z,98780.59
2023-02-24T12:15:43.009Z,98778.72
2023-02-24T12:18:40.894Z,98764.03
2023-02-24T12:21:09.998Z,98764.59
2023-02-24T12:23:44.492Z,98761.66
2023-02-24T12:26:42.575Z,98755.19
2023-02-24T12:30:07.668Z,98755.41
2023-02-24T12:32:34.686Z,98750.53
2023-02-24T12:35:22.521Z,98737.03
2023-02-24T12:38:17.665Z,98740.91
2023-02-24T12:41:06.631Z,98738.22
2023-02-24T12:43:58.262Z,98734.19
2023-02-24T12:46:37.244Z,98723.63
2023-02-24T12:49:40.250Z,98720.63
2023-02-24T12:52:40.820Z,98717.59
2023-02-24T12:55:25.820Z,98714.00
2023-02-24T12:58:26.434Z,98701.91
2023-02-24T13:01:15.400Z,98699.78
2023-02-24T13:03:59.660Z,98692.47
2023-02-24T13:06:57.095Z,98690.38
2023-02-24T13:10:15.405Z,98683.97
2023-02-24T13:13:30.187Z,98682.34
2023-02-24T13:16:02.137Z,98677.44
2023-02-24T13:18:35.817Z,98670.94
2023-02-24T13:21:18.708Z,98666.66
2023-02-24T13:24:03.397Z,98658.81
2023-02-24T13:26:32.751Z,98658.00
2023-02-24T13:29:12.740Z,98652.66
2023-02-24T13:31:47.820Z,98645.69
2023-02-24T13:34:22.024Z,98641.28
2023-02-24T13:36:50.661Z,98642.78
2023-02-24T13:39:37.532Z,98644.66
2023-02-24T13:42:26.245Z,98630.34
2023-02-24T13:45:20.966Z,98631.47
2023-02-24T13:48:01.810Z,98621.13
2023-02-24T13:50:43.369Z,98612.72
2023-02-24T13:53:23.719Z,98613.25
2023-02-24T13:56:34.027Z,98603.56
2023-02-24T13:59:15.802Z,98596.34
2023-02-24T14:02:16.792Z,98600.38
2023-02-24T14:04:55.079Z,98590.53
2023-02-24T14:07:31.319Z,98586.25
2023-02-24T14:10:02.598Z,98591.84
2023-02-24T14:12:35.965Z,98589.06
2023-02-24T14:15:05.165Z,98598.31
2023-02-24T14:17:37.179Z,98592.63
2023-02-24T14:20:09.853Z,98579.63
2023-02-24T14:22:44.626Z,98589.09
2023-02-24T14:25:13.336Z,98576.81
2023-02-24T14:27:42.954Z,98576.94
2023-02-24T14:30:28.299Z,98573.84
2023-02-24T14:32:55.370Z,98574.66
2023-02-24T14:35:45.204Z,98568.88
2023-02-24T14:38:34.929Z,98570.75
2023-02-24T14:41:05.631Z,98565.75
2023-02-24T14:43:39.737Z,98564.63
2023-02-24T14:46:06.862Z,98561.25
2023-02-24T14:48:33.883Z,98560.88
2023-02-24T14:51:12.573Z,98553.09
2023-02-24T14:53:50.037Z,98548.00
2023-02-24T14:56:19.394Z,98539.41
2023-02-24T14:58:55.883Z,98535.69
2023-02-24T15:01:33.714Z,98534.63
2023-02-24T15:04:30.397Z,98530.53
2023-02-24T15:06:57.532Z,98534.25
2023-02-24T15:09:34.133Z,98519.75
2023-02-24T15:12:19.244Z,98516.47
2023-02-24T15:15:08.526Z,98514.25
2023-02-24T15:17:40.860Z,98521.72
2023-02-24T15:20:32.651Z,98512.75
2023-02-24T15:23:00.160Z,98506.22
2023-02-24T15:25:48.122Z,98511.25
2023-02-24T15:28:30.877Z,98503.13
2023-02-24T15:31:19.780Z,98497.41
2023-02-24T15:34:00.225Z,98497.88
2023-02-24T15:36:33.504Z,98486.84
2023-02-24T15:39:06.656Z,98489.75
2023-02-24T15:41:44.037Z,98486.50
2023-02-24T15:44:31.397Z,98495.22
2023-02-24T15:47:00.881Z,98474.50
2023-02-24T15:49:27.858Z,98483.00
2023-02-24T15:51:59.523Z,98474.41
2023-02-24T15:54:36.275Z,98472.44
2023-02-24T15:57:05.276Z,98479.28
2023-02-24T15:59:32.492Z,98478.38
2023-02-24T16:01:59.420Z,98475.34
2023-02-24T16:04:27.511Z,98476.81
2023-02-24T16:06:57.508Z,98474.06
2023-02-24T16:09:37.411Z,98474.50
2023-02-24T16:12:21.843Z,98471.25
2023-02-24T16:15:02.104Z,98475.19
2023-02-24T16:17:40.877Z,98471.38
2023-02-24T16:20:28.132Z,98480.66
2023-02-24T16:23:00.673Z,98470.19
2023-02-24T16:25:30.107Z,98468.78
2023-02-24T16:27:59.617Z,98468.44
2023-02-24T16:30:30.326Z,98464.59
2023-02-24T16:33:01.111Z,98465.88
2023-02-24T16:35:30.898Z,98461.00
2023-02-24T16:37:57.815Z,98461.44
2023-02-24T16:40:30.705Z,98460.53
2023-02-24T16:42:57.702Z,98459.56
2023-02-24T16:45:29.370Z,98462.09
2023-02-24T16:48:02.157Z,98460.81
2023-02-24T16:50:39.093Z,98464.81
2023-02-24T16:53:18.608Z,98460.38
2023-02-24T16:55:47.142Z,98466.00
2023-02-24T16:58:15.089Z,98457.28
2023-02-24T17:00:46.422Z,98461.66
2023-02-24T17:03:33.334Z,98458.03
2023-02-24T17:06:00.431Z,98463.44
2023-02-24T17:08:27.603Z,98462.28
2023-02-24T17:10:54.686Z,98474.66
2023-02-24T17:13:22.432Z,98467.53
2023-02-24T17:15:56.907Z,98467.19
2023-02-24T17:18:25.779Z,98459.03
2023-02-24T17:20:53.467Z,98462.38
2023-02-24T17:23:20.616Z,98471.81
2023-02-24T17:25:54.781Z,98470.66
2023-02-24T17:28:22.214Z,98473.97
2023-02-24T17:30:49.232Z,98469.31
2023-02-24T17:33:16.260Z,98483.09
2023-02-24T17:35:43.904Z,98476.56
2023-02-24T17:38:22.266Z,98474.56
2023-02-24T17:40:49.233Z,98464.34
2023-02-24T17:43:16.228Z,98469.31
2023-02-24T17:45:46.041Z,98479.56
2023-02-24T17:48:15.097Z,98472.25
2023-02-24T17:50:43.791Z,98478.00
2023-02-24T17:53:10.961Z,98478.47
2023-02-24T17:55:38.268Z,98477.25
2023-02-24T17:58:05.452Z,98477.69
2023-02-24T18:00:32.446Z,98478.94
2023-02-24T18:03:01.638Z,98490.22
2023-02-24T18:05:29.886Z,98496.59
2023-02-24T18:07:59.953Z,98495.41
2023-02-24T18:10:27.313Z,98502.59
2023-02-24T18:12:54.277Z,98499.09
2023-02-24T18:15:21.243Z,98496.88
2023-02-24T18:17:48.172Z,98499.75
2023-02-24T18:20:15.168Z,98506.91
2023-02-24T18:22:42.233Z,98500.78
2023-02-24T18:25:09.716Z,98503.63
2023-02-24T18:27:36.855Z,98513.47
2023-02-24T18:30:06.685Z,98510.81
2023-02-24T18:32:34.419Z,98511.63
2023-02-24T18:35:01.523Z,98514.28
2023-02-24T18:37:28.493Z,98511.03
2023-02-24T18:39:55.508Z,98514.72
2023-02-24T18:42:22.586Z,98508.59
2023-02-24T18:44:49.496Z,98511.47
2023-02-24T18:47:16.561Z,98511.09
2023-02-24T18:49:43.496Z,98513.97
2023-02-24T18:52:11.729Z,98511.75
2023-02-24T18:54:39.073Z,98515.63
2023-02-24T18:57:05.998Z,98518.94
2023-02-24T18:59:33.149Z,98519.38
2023-02-24T19:02:00.218Z,98525.13
2023-02-24T19:04:27.230Z,98527.63
2023-02-24T19:06:54.250Z,98523.16
2023-02-24T19:09:22.318Z,98528.88
2023-02-24T19:11:50.182Z,98531.38
2023-02-24T19:14:17.721Z,98540.00
2023-02-24T19:16:45.208Z,98543.25
2023-02-24T19:19:16.384Z,98546.56
2023-02-24T19:21:45.324Z,98546.38
2023-02-24T19:24:13.665Z,98553.94
2023-02-24T19:26:42.542Z,98556.00
2023-02-24T19:29:10.784Z,98555.59
2023-02-24T19:31:38.744Z,98561.13
2023-02-24T19:34:11.042Z,98565.84
2023-02-24T19:36:38.900Z,98574.84
2023-02-24T19:39:12.218Z,98574.66
2023-02-24T19:41:39.314Z,98569.75
2023-02-24T19:44:06.475Z,98572.81
2023-02-24T19:46:34.254Z,98572.44
2023-02-24T19:49:01.805Z,98573.06
2023-02-24T19:51:29.587Z,98568.34
2023-02-24T19:54:00.307Z,98569.59
2023-02-24T19:56:31.185Z,98577.38
2023-02-24T19:59:00.056Z,98577.59
2023-02-24T20:01:29.561Z,98576.13
2023-02-24T20:04:01.488Z,98585.13
2023-02-24T20:06:33.465Z,98592.72
2023-02-24T20:09:00.735Z,98601.91
2023-02-24T20:11:29.712Z,98609.69
2023-02-24T20:13:59.552Z,98617.47
2023-02-24T20:16:31.954Z,98611.34
2023-02-24T20:19:00.016Z,98615.00
2023-02-24T20:21:27.906Z,98617.84
2023-02-24T20:23:54.841Z,98611.72
2023-02-24T20:26:22.536Z,98617.84
2023-02-24T20:28:49.701Z,98615.16
2023-02-24T20:31:19.442Z,98621.31
2023-02-24T20:33:48.538Z,98624.78
2023-02-24T20:36:22.587Z,98620.88
2023-02-24T20:38:50.518Z,98622.28
2023-02-24T20:41:19.258Z,98626.38
2023-02-24T20:43:46.704Z,98626.75
2023-02-24T20:46:17.916Z,98621.88
2023-02-24T20:48:45.231Z,98626.72
2023-02-24T20:51:12.676Z,98621.84
2023-02-24T20:53:56.138Z,98629.38
2023-02-24T20:56:25.477Z,98622.63
2023-02-24T20:58:59.889Z,98615.91
2023-02-24T21:01:28.561Z,98621.22
2023-02-24T21:03:55.654Z,98620.56
2023-02-24T21:06:23.116Z,98612.63
2023-02-24T21:08:51.074Z,98613.63
2023-02-24T21:11:18.087Z,98614.47
2023-02-24T21:13:49.249Z,98618.13
2023-02-24T21:16:17.894Z,98616.69
2023-02-24T21:18:47.405Z,98619.53
2023-02-24T21:21:15.274Z,98615.44
2023-02-24T21:23:43.617Z,98614.84
2023-02-24T21:26:12.551Z,98613.38
2023-02-24T21:28:40.543Z,98610.13
2023-02-24T21:31:14.188Z,98619.31
2023-02-24T21:33:41.493Z,98621.31
2023-02-24T21:36:14.246Z,98611.72
2023-02-24T21:38:41.509Z,98620.69
2023-02-24T21:41:14.571Z,98625.41
2023-02-24T21:43:44.025Z,98618.47
2023-02-24T21:46:13.333Z,98615.16
2023-02-24T21:48:41.682Z,98617.22
2023-02-24T21:51:11.918Z,98613.13
2023-02-24T21:53:43.370Z,98620.44
2023-02-24T21:56:22.131Z,98625.34
2023-02-24T21:58:55.733Z,98631.81
2023-02-24T22:01:27.292Z,98612.88
2023-02-24T22:03:56.923Z,98614.25
2023-02-24T22:06:26.155Z,98620.78
2023-02-24T22:08:55.276Z,98624.00
2023-02-24T22:11:23.612Z,98619.72
2023-02-24T22:13:50.853Z,98616.66
2023-02-24T22:16:25.190Z,98617.84
2023-02-24T22:18:55.148Z,98620.72
2023-02-24T22:21:28.144Z,98620.25
2023-02-24T22:23:59.417Z,98621.50
2023-02-24T22:26:28.580Z,98622.69
2023-02-24T22:28:55.650Z,98631.63
2023-02-24T22:31:28.282Z,98634.50
2023-02-24T22:33:55.388Z,98635.72
2023-02-24T22:36:25.900Z,98640.16
2023-02-24T22:38:55.614Z,98645.66
2023-02-24T22:41:29.669Z,98637.88
2023-02-24T22:43:56.637Z,98635.44
2023-02-24T22:46:37.227Z,98631.16
2023-02-24T22:49:05.517Z,98637.25
2023-02-24T22:51:32.596Z,98630.34
2023-02-24T22:53:59.568Z,98635.00
2023-02-24T22:56:28.947Z,98647.41
2023-02-24T22:58:57.144Z,98645.78
2023-02-24T23:01:30.171Z,98649.44
2023-02-24T23:04:01.246Z,98654.94
2023-02-24T23:06:29.337Z,98649.84
2023-02-24T23:08:59.437Z,98653.50
2023-02-24T23:11:33.127Z,98646.53
2023-02-24T23:14:05.393Z,98651.84
2023-02-24T23:16:35.232Z,98653.69
2023-02-24T23:19:12.804Z,98658.16
2023-02-24T23:21:46.155Z,98664.47
2023-02-24T23:24:15.087Z,98668.94
2023-02-24T23:26:51.774Z,98668.94
2023-02-24T23:29:19.547Z,98673.22
2023-02-24T23:31:47.758Z,98669.75
2023-02-24T23:34:15.622Z,98673.44
2023-02-24T23:36:45.913Z,98673.44
2023-02-24T23:39:16.307Z,98670.97
2023-02-24T23:41:43.937Z,98675.47
2023-02-24T23:44:12.263Z,98680.75
2023-02-24T23:46:39.290Z,98680.75
2023-02-24T23:49:06.304Z,98682.59
2023-02-24T23:51:49.830Z,98685.03
2023-02-24T23:54:20.325Z,98686.88
2023-02-24T23:56:47.764Z,98694.00
2023-02-24T23:59:15.259Z,98692.38
